Terminal Aerodrome Forecast
Issued by NWS Mt. Holly, NJ

Home | Current Version | Previous Version | Text Only | Print | Product List | Glossary On
Versions: 1 2 3 4 5 6 7 8 9 10 11 12 13 14
000
FTUS41 KPHI 260540
TAFABE
TAF
KABE 260540Z 2606/2706 21005KT P6SM SCT250
     FM261300 23007KT P6SM FEW070 SCT250
     FM261800 20009G17KT P6SM SCT050 BKN150
     FM270000 19006KT P6SM OVC120=

USA.gov is the U.S. government's official web portal to all federal, state and local government web resources and services.